Terminal Aerodrome Forecast
Issued by NWS

Home | Current Version | Previous Version | Text Only | Print | Product List | Glossary On
Versions: 1 2 3 4 5 6 7 8 9 10 11 12 13 14 15 16 17 18 19 20 21 22 23 24 25 26 27 28 29 30 31
276
FTUS43 KDLH 270950 AAA
TAFHYR
TAF AMD
KHYR 270950Z 2710/2806 00000KT 6SM -SN SCT024 OVC040
      TEMPO 2710/2712 4SM -SN BKN024 OVC035
     FM271200 00000KT P6SM BKN050
     FM271500 18007KT P6SM BKN110=

USA.gov is the U.S. government's official web portal to all federal, state and local government web resources and services.